Time;durP1;ratioP1;P1;durP2;ratioP2;P2;SDS_P1;SDS_P2;PMS_P1;PMS_P2;Temp;Humidity;BMP_temperature;BMP_pressure;BME280_temperature;BME280_humidity;BME280_pressure;Samples;Min_cycle;Max_cycle;Signal;HPM_P1;HPM_P2
2020/12/05 00:01:34;;;;;;;11.88;10.48;;;24.60;62.60;;;;;;5086231;28;20714;-61
2020/12/05 00:04:05;;;;;;;13.27;12.00;;;24.60;62.60;;;;;;5086657;28;20236;-60
2020/12/05 00:06:36;;;;;;;13.98;12.52;;;24.60;62.70;;;;;;5083473;28;20224;-61
2020/12/05 00:09:07;;;;;;;14.70;11.75;;;24.60;62.70;;;;;;5085629;28;20228;-61
2020/12/05 00:11:37;;;;;;;11.60;10.50;;;24.50;62.80;;;;;;5086927;28;20228;-59
2020/12/05 00:14:08;;;;;;;11.93;10.68;;;24.60;62.90;;;;;;5083561;28;20250;-61
2020/12/05 00:16:39;;;;;;;10.55;9.45;;;24.50;63.00;;;;;;5085376;28;20358;-60
2020/12/05 00:19:11;;;;;;;11.77;10.43;;;24.60;63.10;;;;;;5090999;28;20597;-61
2020/12/05 00:21:42;;;;;;;11.27;10.18;;;24.60;63.30;;;;;;5093784;28;20228;-61
2020/12/05 00:24:13;;;;;;;12.75;11.38;;;24.60;63.40;;;;;;5096682;28;20229;-60
2020/12/05 00:26:44;;;;;;;13.25;11.98;;;24.60;63.50;;;;;;5102708;27;20250;-61
2020/12/05 00:29:15;;;;;;;12.20;11.10;;;24.60;63.70;;;;;;5107298;27;20220;-61
2020/12/05 00:31:49;;;;;;;12.48;11.27;;;24.60;63.50;;;;;;5106818;27;21152;-61
2020/12/05 00:34:19;;;;;;;12.65;11.43;;;24.60;63.60;;;;;;5116972;27;20297;-61
2020/12/05 00:36:53;;;;;;;12.13;10.88;;;24.60;63.60;;;;;;5105789;27;20232;-61
2020/12/05 00:39:24;;;;;;;13.30;11.27;;;24.60;63.60;;;;;;5101082;27;20255;-59
2020/12/05 00:41:55;;;;;;;13.45;12.00;;;24.60;64.30;;;;;;5099833;27;20234;-61
2020/12/05 00:44:26;;;;;;;12.90;11.60;;;24.70;63.50;;;;;;5098592;27;20243;-61
2020/12/05 00:46:57;;;;;;;12.80;11.50;;;24.70;63.70;;;;;;5103664;27;20224;-60
2020/12/05 00:49:28;;;;;;;15.65;11.95;;;24.70;63.50;;;;;;5101692;27;20237;-60
2020/12/05 00:52:00;;;;;;;13.40;10.95;;;24.70;63.50;;;;;;5095964;28;20230;-61
2020/12/05 00:54:30;;;;;;;12.90;11.70;;;24.70;63.30;;;;;;5095776;28;20248;-59
2020/12/05 00:57:02;;;;;;;12.10;10.90;;;24.70;63.20;;;;;;5084431;27;20228;-58
2020/12/05 00:59:32;;;;;;;12.60;11.23;;;24.80;63.30;;;;;;5097910;27;20240;-60
2020/12/05 01:02:03;;;;;;;13.02;10.85;;;24.80;63.30;;;;;;5094375;28;20313;-60
2020/12/05 01:04:36;;;;;;;12.40;11.15;;;24.90;63.20;;;;;;5095210;27;20231;-60
2020/12/05 01:07:08;;;;;;;13.25;10.85;;;24.90;63.10;;;;;;5098476;28;20238;-59
2020/12/05 01:09:39;;;;;;;12.18;10.30;;;25.00;62.90;;;;;;5095872;28;20262;-60
2020/12/05 01:12:09;;;;;;;12.27;10.90;;;25.00;62.80;;;;;;5098982;27;20235;-59
2020/12/05 01:14:39;;;;;;;13.10;9.98;;;25.00;62.30;;;;;;5099124;27;20227;-59
2020/12/05 01:17:10;;;;;;;12.80;11.57;;;25.10;62.20;;;;;;5098404;27;20285;-59
2020/12/05 01:19:41;;;;;;;12.13;10.77;;;25.10;62.10;;;;;;5091744;28;20970;-60
2020/12/05 01:22:13;;;;;;;11.40;10.30;;;25.20;62.00;;;;;;5097149;27;20255;-59
2020/12/05 01:24:43;;;;;;;10.65;9.65;;;25.20;61.70;;;;;;5085709;27;20219;-60
2020/12/05 01:27:13;;;;;;;12.30;10.57;;;25.20;61.50;;;;;;5095251;27;20240;-60
2020/12/05 01:29:44;;;;;;;12.05;10.98;;;25.30;61.40;;;;;;5098226;27;20236;-60
2020/12/05 01:32:15;;;;;;;12.65;11.35;;;25.30;61.20;;;;;;5095165;27;20236;-57
2020/12/05 01:34:46;;;;;;;11.13;10.05;;;25.40;60.80;;;;;;5095630;27;20255;-59
2020/12/05 01:37:18;;;;;;;11.13;10.05;;;25.40;61.10;;;;;;5093250;28;20227;-61
2020/12/05 01:39:49;;;;;;;12.23;10.27;;;25.40;60.90;;;;;;5097096;27;20786;-59
2020/12/05 01:42:20;;;;;;;11.38;10.27;;;25.50;61.00;;;;;;5096591;28;20224;-60
2020/12/05 01:44:50;;;;;;;11.18;10.07;;;25.60;60.90;;;;;;5095975;28;20228;-58
2020/12/05 01:47:22;;;;;;;10.80;9.88;;;25.60;60.90;;;;;;5086260;27;20228;-59
2020/12/05 01:49:53;;;;;;;10.48;9.48;;;25.70;61.10;;;;;;5108157;27;20227;-59
2020/12/05 01:52:24;;;;;;;9.93;9.02;;;25.70;61.10;;;;;;5041492;28;20244;-59
2020/12/05 01:54:55;;;;;;;10.90;9.20;;;25.80;61.20;;;;;;5038241;28;20328;-58
2020/12/05 01:57:26;;;;;;;11.55;10.50;;;25.90;61.30;;;;;;5027060;28;20818;-59
2020/12/05 01:59:57;;;;;;;10.48;9.57;;;26.00;61.00;;;;;;5033906;28;20317;-59
2020/12/05 02:02:27;;;;;;;10.70;9.70;;;26.10;60.80;;;;;;5035179;28;20222;-60
2020/12/05 02:05:04;;;;;;;10.73;9.68;;;26.20;60.30;;;;;;5038188;28;20245;-60
2020/12/05 02:07:40;;;;;;;9.93;8.98;;;26.30;60.00;;;;;;5031844;28;20707;-62
2020/12/05 02:10:11;;;;;;;10.13;9.13;;;26.30;60.00;;;;;;5033745;28;20233;-59
2020/12/05 02:12:55;;;;;;;10.27;9.20;;;26.40;60.30;;;;;;5038422;28;20272;-60
2020/12/05 02:15:26;;;;;;;10.02;9.00;;;26.50;59.80;;;;;;5040743;28;20265;-60
2020/12/05 02:18:01;;;;;;;12.65;9.38;;;26.60;59.40;;;;;;5094738;27;20239;-60
2020/12/05 02:20:34;;;;;;;10.13;9.13;;;26.70;59.30;;;;;;5099106;27;20288;-60
2020/12/05 02:23:10;;;;;;;10.98;9.70;;;26.80;59.50;;;;;;5097209;27;20323;-60
2020/12/05 02:25:41;;;;;;;10.60;9.60;;;26.80;58.80;;;;;;5099155;27;21193;-60
2020/12/05 02:28:11;;;;;;;12.45;10.60;;;26.90;58.80;;;;;;5098689;28;20227;-58
2020/12/05 02:30:43;;;;;;;11.68;10.48;;;26.90;58.20;;;;;;5099707;27;20276;-61
2020/12/05 02:33:16;;;;;;;9.85;8.95;;;27.00;58.20;;;;;;5097026;28;20259;-61
2020/12/05 02:35:47;;;;;;;11.05;9.63;;;27.00;58.40;;;;;;5098822;28;20235;-61
2020/12/05 02:38:21;;;;;;;10.88;9.77;;;27.10;58.50;;;;;;5093935;27;20231;-61
2020/12/05 02:40:52;;;;;;;10.38;9.35;;;27.10;57.90;;;;;;5097176;27;20246;-61
2020/12/05 02:43:23;;;;;;;10.98;9.88;;;27.20;58.00;;;;;;5096522;28;20237;-58
2020/12/05 02:45:54;;;;;;;11.88;10.68;;;27.20;58.00;;;;;;5092970;28;20220;-60
2020/12/05 02:48:24;;;;;;;11.15;10.07;;;27.30;57.70;;;;;;5099707;28;21123;-59
2020/12/05 02:50:55;;;;;;;10.55;9.50;;;27.30;57.60;;;;;;5091589;27;20927;-60
2020/12/05 02:53:26;;;;;;;12.10;10.68;;;27.30;57.50;;;;;;5094776;27;20555;-60
2020/12/05 02:55:57;;;;;;;10.57;9.50;;;27.30;57.00;;;;;;5091650;27;20247;-60
2020/12/05 02:58:28;;;;;;;11.13;10.02;;;27.40;57.20;;;;;;5096566;27;20232;-60
2020/12/05 03:00:59;;;;;;;10.63;9.73;;;27.40;57.20;;;;;;5099821;28;20250;-60
2020/12/05 03:03:30;;;;;;;10.70;8.95;;;27.50;57.40;;;;;;5094951;28;20232;-60
2020/12/05 03:06:01;;;;;;;10.98;9.88;;;27.50;57.30;;;;;;5091732;27;20242;-60
2020/12/05 03:08:33;;;;;;;9.95;9.00;;;27.60;57.30;;;;;;5098018;27;20231;-60
2020/12/05 03:11:03;;;;;;;10.10;9.10;;;27.60;57.20;;;;;;5092131;27;20402;-60
2020/12/05 03:13:34;;;;;;;15.23;10.60;;;27.70;57.30;;;;;;5100978;28;20236;-60
2020/12/05 03:16:07;;;;;;;11.70;9.38;;;27.70;57.00;;;;;;5102575;27;20315;-57
2020/12/05 03:18:38;;;;;;;9.95;9.02;;;27.80;57.40;;;;;;5084368;28;20228;-58
2020/12/05 03:21:09;;;;;;;10.75;9.65;;;27.80;57.10;;;;;;5079116;28;20657;-59
2020/12/05 03:23:45;;;;;;;12.40;8.95;;;27.90;56.90;;;;;;5081642;28;20221;-58
2020/12/05 03:26:16;;;;;;;9.57;8.75;;;28.00;56.80;;;;;;5074965;28;20301;-60
2020/12/05 03:28:46;;;;;;;10.90;9.90;;;28.10;56.90;;;;;;5080157;28;20227;-60
2020/12/05 03:31:30;;;;;;;9.65;8.75;;;28.20;56.50;;;;;;5075903;28;20221;-59
2020/12/05 03:34:03;;;;;;;10.88;9.88;;;28.20;56.60;;;;;;5074103;28;20254;-60
2020/12/05 03:36:33;;;;;;;10.20;9.20;;;28.30;56.20;;;;;;5075532;28;20244;-60
2020/12/05 03:39:04;;;;;;;9.80;8.70;;;28.30;56.60;;;;;;5073795;28;20221;-59
2020/12/05 03:41:35;;;;;;;9.00;8.20;;;28.40;56.10;;;;;;5074635;28;20232;-60
2020/12/05 03:44:06;;;;;;;9.70;8.75;;;28.50;56.30;;;;;;5081137;28;21103;-60
2020/12/05 03:46:37;;;;;;;9.98;8.98;;;28.50;56.00;;;;;;5077222;28;20234;-60
2020/12/05 03:49:07;;;;;;;10.32;9.25;;;28.60;55.80;;;;;;5076558;28;20231;-59
2020/12/05 03:51:38;;;;;;;10.23;9.23;;;28.60;55.70;;;;;;5070279;28;20235;-60
2020/12/05 03:54:10;;;;;;;9.77;8.80;;;28.70;55.90;;;;;;5088669;28;20228;-61
2020/12/05 03:56:41;;;;;;;9.77;8.88;;;28.80;55.90;;;;;;5081694;28;20323;-60
2020/12/05 03:59:11;;;;;;;10.60;9.60;;;28.80;55.50;;;;;;5080140;28;20232;-61
2020/12/05 04:01:42;;;;;;;10.00;9.00;;;28.90;55.30;;;;;;5075038;28;20233;-60
2020/12/05 04:04:13;;;;;;;10.13;9.20;;;28.90;55.20;;;;;;5075475;28;20293;-59
2020/12/05 04:06:43;;;;;;;10.95;9.95;;;29.00;55.00;;;;;;5067830;28;20228;-58
2020/12/05 04:09:15;;;;;;;9.18;8.35;;;29.10;55.10;;;;;;5083939;28;20232;-60
2020/12/05 04:11:46;;;;;;;10.70;9.70;;;29.20;55.10;;;;;;5084933;28;20228;-61
2020/12/05 04:14:16;;;;;;;10.25;9.25;;;29.20;54.80;;;;;;5093964;28;20251;-60
2020/12/05 04:16:47;;;;;;;9.60;8.65;;;29.20;54.30;;;;;;5092927;27;20692;-60
2020/12/05 04:19:17;;;;;;;10.77;9.68;;;29.30;54.20;;;;;;5104028;27;20230;-60
2020/12/05 04:21:49;;;;;;;11.95;10.15;;;29.40;54.10;;;;;;5104904;27;20254;-61
2020/12/05 04:24:21;;;;;;;10.32;9.43;;;29.40;54.20;;;;;;5098472;28;20234;-61
2020/12/05 04:26:53;;;;;;;11.40;9.35;;;29.40;54.10;;;;;;5092840;28;20228;-60
2020/12/05 04:29:23;;;;;;;11.43;10.32;;;29.40;54.00;;;;;;5093313;28;20224;-60
2020/12/05 04:31:54;;;;;;;12.57;11.00;;;29.50;54.00;;;;;;5092081;27;20235;-59
2020/12/05 04:34:25;;;;;;;14.57;11.38;;;29.50;53.90;;;;;;5103853;27;20232;-60
2020/12/05 04:36:56;;;;;;;12.15;10.90;;;29.60;53.90;;;;;;5103295;27;20227;-59
2020/12/05 04:39:28;;;;;;;11.02;10.00;;;29.60;54.00;;;;;;5105222;27;20235;-59
2020/12/05 04:41:58;;;;;;;10.43;9.50;;;29.70;53.60;;;;;;5094252;27;20703;-60
2020/12/05 04:44:29;;;;;;;10.07;9.07;;;29.70;53.80;;;;;;5102105;27;20270;-59
2020/12/05 04:47:01;;;;;;;10.60;9.60;;;29.70;53.10;;;;;;5102094;28;20231;-61
2020/12/05 04:49:31;;;;;;;9.93;9.02;;;29.80;53.20;;;;;;5101534;27;20238;-60
2020/12/05 04:52:18;;;;;;;10.73;9.63;;;29.80;53.20;;;;;;5095373;27;20256;-60
2020/12/05 04:54:52;;;;;;;10.55;9.45;;;29.90;53.10;;;;;;5039116;28;20296;-60
2020/12/05 04:57:23;;;;;;;9.70;8.77;;;29.90;52.70;;;;;;5041544;28;20722;-60
2020/12/05 04:59:54;;;;;;;9.85;8.95;;;30.00;53.30;;;;;;5037975;28;20230;-59
2020/12/05 05:02:28;;;;;;;10.82;9.23;;;30.00;53.40;;;;;;5043312;28;20238;-60
2020/12/05 05:04:59;;;;;;;9.60;8.70;;;30.10;53.40;;;;;;5032394;28;20283;-59
2020/12/05 05:07:29;;;;;;;10.07;9.23;;;30.10;53.10;;;;;;5020423;28;20625;-60
2020/12/05 05:10:08;;;;;;;11.07;9.30;;;30.20;52.80;;;;;;5045451;28;20229;-59
2020/12/05 05:12:38;;;;;;;9.90;9.00;;;30.30;52.90;;;;;;5038856;28;20259;-61
2020/12/05 05:15:28;;;;;;;9.82;8.82;;;30.30;52.80;;;;;;5040221;28;20241;-60
2020/12/05 05:18:02;;;;;;;9.95;8.95;;;30.40;52.70;;;;;;5043991;28;20240;-59
2020/12/05 05:20:35;;;;;;;9.27;8.38;;;30.50;52.40;;;;;;5040244;28;20253;-57
2020/12/05 05:23:14;;;;;;;10.48;9.48;;;30.50;52.70;;;;;;5038304;28;20743;-59
2020/12/05 05:25:53;;;;;;;10.40;9.45;;;30.50;52.20;;;;;;5072729;27;20235;-58
2020/12/05 05:28:25;;;;;;;9.30;8.35;;;30.60;51.70;;;;;;5098719;27;20539;-60
2020/12/05 05:31:03;;;;;;;9.00;8.20;;;30.70;52.00;;;;;;5096711;28;20216;-60
2020/12/05 05:33:44;;;;;;;9.40;8.50;;;30.70;51.80;;;;;;5096437;27;20236;-60
2020/12/05 05:36:32;;;;;;;9.15;8.25;;;30.80;51.90;;;;;;5101454;27;20235;-59
2020/12/05 05:39:04;;;;;;;8.70;7.93;;;30.90;51.80;;;;;;5103242;27;20220;-59
2020/12/05 05:41:38;;;;;;;9.98;8.80;;;30.90;51.40;;;;;;5101032;27;20352;-60
2020/12/05 05:44:09;;;;;;;9.50;8.50;;;30.90;51.20;;;;;;5099543;27;20239;-59
2020/12/05 05:46:42;;;;;;;9.27;8.38;;;31.00;51.80;;;;;;5098977;27;20235;-58
2020/12/05 05:49:13;;;;;;;7.93;7.13;;;31.00;51.90;;;;;;5103489;27;20284;-58
2020/12/05 05:51:45;;;;;;;9.73;8.70;;;31.10;52.10;;;;;;5103086;28;20235;-58
2020/12/05 05:54:24;;;;;;;10.02;8.98;;;31.20;51.70;;;;;;5103135;27;20311;-61
2020/12/05 05:57:03;;;;;;;8.77;7.88;;;31.20;51.20;;;;;;5100646;27;20224;-58
2020/12/05 05:59:34;;;;;;;9.73;8.73;;;31.30;51.30;;;;;;5101695;28;20232;-60
2020/12/05 06:02:05;;;;;;;9.18;8.38;;;31.30;51.30;;;;;;5101216;27;20292;-60
2020/12/05 06:04:36;;;;;;;9.25;7.63;;;31.30;50.90;;;;;;5101170;27;20706;-59
2020/12/05 06:07:14;;;;;;;8.63;7.80;;;31.40;51.10;;;;;;5099692;27;20267;-59
2020/12/05 06:09:49;;;;;;;8.45;7.75;;;31.50;51.00;;;;;;5101984;27;20281;-64
2020/12/05 06:12:21;;;;;;;7.43;6.80;;;31.60;50.80;;;;;;5102234;28;20219;-59
2020/12/05 06:14:52;;;;;;;8.63;7.50;;;31.60;51.00;;;;;;5097658;27;20239;-60
2020/12/05 06:17:23;;;;;;;7.88;7.28;;;31.70;51.20;;;;;;5096828;27;20265;-59
2020/12/05 06:19:55;;;;;;;8.77;7.93;;;31.70;51.00;;;;;;5094128;27;20228;-59
2020/12/05 06:22:28;;;;;;;8.63;7.80;;;31.80;50.70;;;;;;5097294;28;20236;-60
2020/12/05 06:25:04;;;;;;;8.50;7.50;;;31.90;50.60;;;;;;5096196;27;20231;-62
2020/12/05 06:27:38;;;;;;;8.63;7.82;;;32.00;50.70;;;;;;5101474;27;20232;-61
2020/12/05 06:30:09;;;;;;;8.23;7.47;;;32.00;50.10;;;;;;5100618;27;20236;-61
2020/12/05 06:32:40;;;;;;;10.55;8.13;;;32.10;50.10;;;;;;5100855;27;20245;-62
2020/12/05 06:35:35;;;;;;;7.85;7.15;;;32.10;50.00;;;;;;5095742;28;20227;-61
2020/12/05 06:38:05;;;;;;;7.88;7.10;;;32.20;50.10;;;;;;5095564;28;20227;-60
2020/12/05 06:40:41;;;;;;;8.57;7.78;;;32.30;50.10;;;;;;5094786;28;20236;-61
2020/12/05 06:43:16;;;;;;;7.93;6.95;;;32.30;49.60;;;;;;5094878;27;20262;-60
2020/12/05 06:45:47;;;;;;;8.27;7.47;;;32.40;49.90;;;;;;5089804;27;20242;-60
2020/12/05 06:48:33;;;;;;;8.35;7.28;;;32.40;49.90;;;;;;5100058;28;20310;-60
2020/12/05 06:51:04;;;;;;;8.00;7.30;;;32.50;50.10;;;;;;5099362;27;20220;-60
2020/12/05 06:53:34;;;;;;;8.80;8.00;;;32.50;49.70;;;;;;5097595;27;20702;-61
2020/12/05 06:56:18;;;;;;;9.23;8.27;;;32.60;49.10;;;;;;5096602;27;20254;-60
2020/12/05 06:58:59;;;;;;;7.90;7.20;;;32.70;49.40;;;;;;5093168;27;20284;-61
2020/12/05 07:01:30;;;;;;;7.95;7.25;;;32.70;49.10;;;;;;5096731;27;20235;-61
2020/12/05 07:04:22;;;;;;;7.65;6.80;;;32.80;49.20;;;;;;5095235;27;20255;-61
2020/12/05 07:06:53;;;;;;;7.68;6.63;;;32.80;49.00;;;;;;5095318;28;20278;-61
2020/12/05 07:09:24;;;;;;;7.40;6.80;;;32.90;49.20;;;;;;5094875;27;20247;-61
2020/12/05 07:12:18;;;;;;;8.00;7.30;;;33.00;49.00;;;;;;5098245;27;20320;-61
2020/12/05 07:14:50;;;;;;;9.00;7.40;;;33.10;49.10;;;;;;5098057;28;20234;-61
2020/12/05 07:17:24;;;;;;;8.43;7.63;;;33.20;49.00;;;;;;5099289;27;20231;-61
2020/12/05 07:19:55;;;;;;;8.05;7.35;;;33.20;48.90;;;;;;5096627;27;20227;-60
2020/12/05 07:22:26;;;;;;;8.90;8.20;;;33.20;48.50;;;;;;5093579;27;20247;-62
2020/12/05 07:24:57;;;;;;;7.95;7.25;;;33.40;48.10;;;;;;5094098;27;20310;-62
2020/12/05 07:27:28;;;;;;;8.25;7.45;;;33.40;48.30;;;;;;5080612;27;20322;-62
2020/12/05 07:30:00;;;;;;;8.95;8.15;;;33.40;48.20;;;;;;5097627;27;20238;-62
2020/12/05 07:32:37;;;;;;;10.32;7.88;;;33.40;47.80;;;;;;5099124;27;20232;-62
2020/12/05 07:35:08;;;;;;;7.95;7.18;;;33.40;47.10;;;;;;5097429;27;20228;-63
2020/12/05 07:37:38;;;;;;;9.52;7.75;;;33.50;47.60;;;;;;5099839;27;20242;-62
2020/12/05 07:40:09;;;;;;;8.95;8.05;;;33.50;47.50;;;;;;5099258;27;20699;-63
2020/12/05 07:42:40;;;;;;;7.60;7.00;;;33.50;47.60;;;;;;5095592;28;20288;-62
2020/12/05 07:45:13;;;;;;;7.78;7.07;;;33.50;47.80;;;;;;5097359;27;20228;-62
2020/12/05 07:47:43;;;;;;;8.70;7.90;;;33.60;48.00;;;;;;5096565;27;20239;-62
2020/12/05 07:50:14;;;;;;;8.68;7.88;;;33.60;47.40;;;;;;5095059;28;20231;-62
2020/12/05 07:52:46;;;;;;;8.77;6.78;;;33.60;46.90;;;;;;5097699;27;21533;-62
2020/12/05 07:55:16;;;;;;;8.18;7.25;;;33.70;47.20;;;;;;5093079;27;20239;-62
2020/12/05 07:57:53;;;;;;;7.72;7.03;;;33.70;46.80;;;;;;5093549;27;20240;-62
2020/12/05 08:00:25;;;;;;;7.70;6.72;;;33.70;47.00;;;;;;5099618;28;20223;-61
2020/12/05 08:03:43;;;;;;;7.32;6.72;;;33.80;47.00;;;;;;5101143;27;20233;-62
2020/12/05 08:06:18;;;;;;;7.45;6.75;;;33.80;47.40;;;;;;5015565;28;20243;-63
2020/12/05 08:08:52;;;;;;;8.50;7.70;;;33.80;46.90;;;;;;5095245;27;20234;-63
2020/12/05 08:11:22;;;;;;;7.75;7.05;;;33.90;46.80;;;;;;5098319;27;20216;-63
2020/12/05 08:13:53;;;;;;;7.63;7.03;;;33.90;46.50;;;;;;5097651;27;20230;-62
2020/12/05 08:16:24;;;;;;;7.97;7.25;;;34.00;46.20;;;;;;5102636;27;20234;-62
2020/12/05 08:18:56;;;;;;;8.43;7.50;;;34.00;46.10;;;;;;5097061;28;20280;-62
2020/12/05 08:21:28;;;;;;;7.78;7.07;;;34.00;46.10;;;;;;5102241;27;20240;-61
2020/12/05 08:24:08;;;;;;;7.55;6.95;;;34.00;46.70;;;;;;5096591;27;20343;-61
2020/12/05 08:26:41;;;;;;;6.90;6.30;;;34.00;46.80;;;;;;5097338;27;20228;-62
2020/12/05 08:29:11;;;;;;;7.28;6.57;;;34.10;46.70;;;;;;5097468;28;20310;-62
2020/12/05 08:31:44;;;;;;;8.10;6.85;;;34.10;46.50;;;;;;5096414;28;20242;-62
2020/12/05 08:34:14;;;;;;;7.68;6.97;;;34.10;46.30;;;;;;5099365;28;20247;-61
2020/12/05 08:36:45;;;;;;;7.28;6.55;;;34.10;46.20;;;;;;5096535;27;20238;-62
2020/12/05 08:39:16;;;;;;;7.20;6.60;;;34.10;46.40;;;;;;5101726;27;20604;-61
2020/12/05 08:41:48;;;;;;;7.88;7.13;;;34.10;46.30;;;;;;5100192;27;20240;-62
2020/12/05 08:44:19;;;;;;;8.30;7.50;;;34.20;45.90;;;;;;5100844;27;20231;-60
2020/12/05 08:47:01;;;;;;;8.57;6.93;;;34.20;45.70;;;;;;5100019;28;20227;-60
2020/12/05 08:49:36;;;;;;;7.60;6.93;;;34.20;45.90;;;;;;5100635;27;20706;-61
2020/12/05 08:52:07;;;;;;;7.63;6.93;;;34.20;45.50;;;;;;5043714;28;20233;-61
2020/12/05 08:54:47;;;;;;;7.07;6.47;;;34.20;45.70;;;;;;5042770;28;20313;-61
2020/12/05 08:57:18;;;;;;;7.55;6.78;;;34.20;45.90;;;;;;5040487;28;20281;-61
2020/12/05 08:59:48;;;;;;;7.93;7.22;;;34.30;45.80;;;;;;5037708;28;20233;-62
2020/12/05 09:02:20;;;;;;;8.52;7.63;;;34.30;45.60;;;;;;5042446;28;20725;-60
2020/12/05 09:04:51;;;;;;;8.05;7.22;;;34.20;45.50;;;;;;5037148;28;20248;-62
2020/12/05 09:07:21;;;;;;;7.45;6.70;;;34.20;45.90;;;;;;5037693;28;20261;-62
2020/12/05 09:09:52;;;;;;;8.15;7.35;;;34.20;46.20;;;;;;5038567;28;20249;-63
2020/12/05 09:12:22;;;;;;;8.30;7.70;;;34.20;46.20;;;;;;5039086;28;20234;-62
2020/12/05 09:14:57;;;;;;;10.27;9.32;;;34.20;46.00;;;;;;5040703;28;20659;-62
2020/12/05 09:17:30;;;;;;;10.45;9.45;;;34.20;45.90;;;;;;5041356;28;20313;-62
2020/12/05 09:20:12;;;;;;;9.25;8.35;;;34.10;46.00;;;;;;5038486;28;20302;-61
2020/12/05 09:22:47;;;;;;;8.70;7.57;;;34.20;46.30;;;;;;5057216;28;20235;-63
2020/12/05 09:25:31;;;;;;;8.68;7.85;;;34.10;46.40;;;;;;5096420;27;20232;-61
2020/12/05 09:28:01;;;;;;;7.53;6.90;;;34.10;46.40;;;;;;5095476;27;20223;-61
2020/12/05 09:30:32;;;;;;;8.52;7.03;;;34.10;46.60;;;;;;5096268;28;20255;-61
2020/12/05 09:33:11;;;;;;;8.13;7.05;;;34.10;46.60;;;;;;5101088;27;20227;-61
2020/12/05 09:35:41;;;;;;;7.20;6.50;;;34.10;47.10;;;;;;5098205;27;20216;-62
2020/12/05 09:38:12;;;;;;;7.68;6.97;;;34.10;46.70;;;;;;5095269;28;20250;-62
2020/12/05 09:40:42;;;;;;;8.20;7.57;;;34.10;46.70;;;;;;5094143;28;20280;-60
2020/12/05 09:43:13;;;;;;;9.15;8.30;;;34.10;46.70;;;;;;5097590;27;20633;-61
2020/12/05 09:45:44;;;;;;;9.70;8.77;;;34.10;46.60;;;;;;5099315;27;20288;-61
2020/12/05 09:48:16;;;;;;;8.43;7.63;;;34.10;46.80;;;;;;5095862;27;20618;-62
2020/12/05 09:50:46;;;;;;;8.65;7.88;;;34.00;46.80;;;;;;5093338;27;20246;-60
2020/12/05 09:53:17;;;;;;;10.13;8.40;;;34.00;46.80;;;;;;5095502;28;20285;-61
2020/12/05 09:55:48;;;;;;;8.88;8.07;;;33.90;46.80;;;;;;5098530;27;20231;-62
2020/12/05 09:58:18;;;;;;;8.57;7.78;;;34.00;46.80;;;;;;5098615;28;20232;-60
2020/12/05 10:00:48;;;;;;;9.35;8.43;;;33.80;46.80;;;;;;5097109;28;20289;-61
2020/12/05 10:03:20;;;;;;;8.82;8.02;;;33.80;47.00;;;;;;5096860;27;20236;-62
2020/12/05 10:05:51;;;;;;;8.70;7.90;;;33.80;47.20;;;;;;5101037;27;20232;-61
2020/12/05 10:08:22;;;;;;;10.75;7.85;;;33.80;47.70;;;;;;5100143;27;20247;-61
2020/12/05 10:10:53;;;;;;;8.27;7.57;;;34.00;47.90;;;;;;5100958;27;20685;-61
2020/12/05 10:13:23;;;;;;;8.60;7.80;;;34.20;48.00;;;;;;5100086;27;20236;-61
2020/12/05 10:15:54;;;;;;;7.60;6.90;;;34.40;47.50;;;;;;5098998;27;20231;-61
2020/12/05 10:18:26;;;;;;;8.43;7.65;;;34.60;47.20;;;;;;5099425;28;20232;-61
2020/12/05 10:20:58;;;;;;;8.00;7.03;;;34.80;46.90;;;;;;5101092;28;20232;-60
2020/12/05 10:23:28;;;;;;;8.27;7.45;;;35.00;46.80;;;;;;5097032;28;20224;-60
2020/12/05 10:25:59;;;;;;;7.85;7.15;;;35.10;46.50;;;;;;5100258;27;20228;-62
2020/12/05 10:28:30;;;;;;;8.68;7.88;;;35.20;46.20;;;;;;5097318;27;20223;-63
2020/12/05 10:31:00;;;;;;;9.45;7.72;;;35.20;45.70;;;;;;5097953;28;20227;-62
2020/12/05 10:33:32;;;;;;;10.27;8.68;;;35.30;45.60;;;;;;5098663;27;20231;-61
2020/12/05 10:36:03;;;;;;;9.25;8.35;;;35.20;45.30;;;;;;5098951;28;20239;-63
2020/12/05 10:38:34;;;;;;;9.10;7.35;;;35.10;45.30;;;;;;5100706;27;20281;-62
2020/12/05 10:41:04;;;;;;;7.88;6.95;;;34.90;45.40;;;;;;5096070;28;20250;-63
2020/12/05 10:43:34;;;;;;;8.80;7.55;;;34.70;45.60;;;;;;5098618;27;20227;-63
2020/12/05 10:46:05;;;;;;;8.30;7.55;;;34.50;46.00;;;;;;5040393;28;20301;-61
2020/12/05 10:48:36;;;;;;;8.38;7.57;;;34.30;46.20;;;;;;5038437;28;20237;-62
2020/12/05 10:51:07;;;;;;;8.90;8.00;;;34.10;46.50;;;;;;5039194;28;20319;-63
2020/12/05 10:53:38;;;;;;;9.15;8.13;;;33.90;46.80;;;;;;5038022;28;20355;-62
2020/12/05 10:56:09;;;;;;;9.43;8.23;;;33.70;47.10;;;;;;5038885;28;20392;-63
2020/12/05 10:58:39;;;;;;;8.15;7.20;;;33.50;47.40;;;;;;5045812;28;20728;-63
2020/12/05 11:01:10;;;;;;;8.15;7.35;;;33.40;47.70;;;;;;5033993;28;20720;-63
2020/12/05 11:03:44;;;;;;;8.75;7.90;;;33.20;47.90;;;;;;5040644;28;20241;-63
2020/12/05 11:06:20;;;;;;;8.45;7.65;;;33.10;48.30;;;;;;5040360;28;22179;-63
2020/12/05 11:08:51;;;;;;;8.68;7.88;;;33.00;48.60;;;;;;4986257;28;20239;-62
2020/12/05 11:11:22;;;;;;;10.93;7.70;;;32.90;49.00;;;;;;4997604;28;20223;-62
2020/12/05 11:13:53;;;;;;;9.07;8.15;;;32.70;49.10;;;;;;4993673;28;22029;-62
2020/12/05 11:16:24;;;;;;;9.50;7.80;;;32.60;49.30;;;;;;5005435;28;20245;-62
2020/12/05 11:18:56;;;;;;;10.23;8.80;;;32.50;49.70;;;;;;5030833;28;20254;-62
2020/12/05 11:21:28;;;;;;;9.77;8.00;;;32.40;49.90;;;;;;5036252;28;20701;-63
2020/12/05 11:24:02;;;;;;;12.10;9.50;;;32.40;50.00;;;;;;5030452;28;20234;-63
2020/12/05 11:26:32;;;;;;;10.52;9.50;;;32.30;50.20;;;;;;5032598;28;20244;-62
2020/12/05 11:29:04;;;;;;;12.77;10.88;;;32.20;50.50;;;;;;5035827;28;20344;-63
2020/12/05 11:31:34;;;;;;;12.48;9.85;;;32.10;50.60;;;;;;5036421;28;20250;-63
2020/12/05 11:34:06;;;;;;;13.10;11.70;;;32.00;50.80;;;;;;5039210;28;20324;-62
2020/12/05 11:36:37;;;;;;;13.38;11.98;;;32.00;51.10;;;;;;5042228;28;20284;-63
2020/12/05 11:39:07;;;;;;;12.32;11.13;;;31.90;51.10;;;;;;5056240;28;20228;-63
2020/12/05 11:41:38;;;;;;;12.68;11.00;;;31.80;51.20;;;;;;5101153;27;20264;-62
2020/12/05 11:44:08;;;;;;;12.30;11.10;;;31.70;51.40;;;;;;5104160;27;20255;-62
2020/12/05 11:46:39;;;;;;;12.68;11.55;;;31.70;51.60;;;;;;5102821;28;20265;-62
2020/12/05 11:49:11;;;;;;;13.43;11.90;;;31.60;51.80;;;;;;5101937;27;20289;-62
2020/12/05 11:51:42;;;;;;;13.55;10.80;;;31.60;52.70;;;;;;5100578;28;20215;-63
2020/12/05 11:54:12;;;;;;;11.85;10.50;;;31.50;52.10;;;;;;5102068;27;20227;-63
2020/12/05 11:56:42;;;;;;;10.55;9.48;;;31.40;52.10;;;;;;5099325;28;20236;-62
2020/12/05 11:59:13;;;;;;;9.95;8.82;;;31.40;52.10;;;;;;5100628;27;20228;-63
2020/12/05 12:01:44;;;;;;;9.75;8.65;;;31.30;52.20;;;;;;5101999;27;20657;-63
2020/12/05 12:04:16;;;;;;;10.20;9.30;;;31.30;52.40;;;;;;5099846;27;20232;-63
2020/12/05 12:06:46;;;;;;;10.68;9.68;;;31.20;52.60;;;;;;5102810;27;20649;-63
2020/12/05 12:09:17;;;;;;;9.90;9.00;;;31.20;52.70;;;;;;5103140;27;20660;-63
2020/12/05 12:11:47;;;;;;;9.88;8.88;;;31.10;52.70;;;;;;5103120;27;20625;-63
2020/12/05 12:14:18;;;;;;;10.80;9.05;;;31.10;53.00;;;;;;5101691;27;20227;-63
2020/12/05 12:16:49;;;;;;;10.35;9.25;;;31.00;53.30;;;;;;5102407;27;20244;-63
2020/12/05 12:19:21;;;;;;;10.20;9.25;;;31.00;53.20;;;;;;5079506;28;20248;-63
2020/12/05 12:21:52;;;;;;;9.15;8.25;;;30.90;53.20;;;;;;5085345;28;20228;-61
2020/12/05 12:24:24;;;;;;;10.45;8.68;;;30.90;53.20;;;;;;5078274;28;20702;-63
2020/12/05 12:26:54;;;;;;;9.70;8.45;;;30.80;53.10;;;;;;5081930;28;20254;-62
2020/12/05 12:29:25;;;;;;;8.65;7.85;;;30.80;53.30;;;;;;5088116;28;20821;-60
2020/12/05 12:31:55;;;;;;;8.60;7.80;;;30.70;53.30;;;;;;5082801;28;20224;-61
2020/12/05 12:34:27;;;;;;;8.70;7.97;;;30.70;53.40;;;;;;5079933;28;20257;-62
2020/12/05 12:37:03;;;;;;;9.30;7.82;;;30.60;53.50;;;;;;5085938;28;20311;-61
2020/12/05 12:39:33;;;;;;;9.00;8.10;;;30.50;53.50;;;;;;5082466;28;20276;-61
2020/12/05 12:42:04;;;;;;;8.13;7.32;;;30.50;53.70;;;;;;5083386;28;20714;-62
2020/12/05 12:44:34;;;;;;;8.15;7.43;;;30.40;53.70;;;;;;5085017;28;20242;-62
2020/12/05 12:47:13;;;;;;;8.68;7.50;;;30.40;53.90;;;;;;5078704;28;20289;-62
2020/12/05 12:49:44;;;;;;;8.30;7.10;;;30.30;54.00;;;;;;5065972;28;20231;-62
2020/12/05 12:52:15;;;;;;;8.45;7.65;;;30.20;54.10;;;;;;5081331;28;20254;-62
2020/12/05 12:54:46;;;;;;;10.15;8.13;;;30.20;54.10;;;;;;5077876;28;20235;-62
2020/12/05 12:57:17;;;;;;;8.85;7.95;;;30.10;54.20;;;;;;5082039;28;20239;-62
2020/12/05 12:59:48;;;;;;;8.48;7.63;;;30.10;54.30;;;;;;5074970;28;20248;-62
2020/12/05 13:02:18;;;;;;;8.27;7.57;;;30.10;54.40;;;;;;5074242;28;20758;-61
2020/12/05 13:04:50;;;;;;;8.50;7.68;;;30.10;54.60;;;;;;5077098;28;20228;-63
2020/12/05 13:07:21;;;;;;;8.48;7.68;;;30.00;54.60;;;;;;5078825;28;20929;-62